Time;durP1;ratioP1;P1;durP2;ratioP2;P2;SDS_P1;SDS_P2;PMS_P1;PMS_P2;Temp;Humidity;BMP_temperature;BMP_pressure;BME280_temperature;BME280_humidity;BME280_pressure;Samples;Min_cycle;Max_cycle;Signal;HPM_P1;HPM_P2
2023/01/20 00:00:05;;;;;;;10.38;4.63;;;1.50;99.90;;;;;;5035839;28;20192;-82
2023/01/20 00:02:32;;;;;;;6.80;6.20;;;1.50;99.90;;;;;;5035624;28;20195;-79
2023/01/20 00:04:58;;;;;;;5.90;5.35;;;1.60;99.90;;;;;;5035834;28;20275;-82
2023/01/20 00:07:25;;;;;;;2.25;1.98;;;1.60;99.90;;;;;;5049238;28;20215;-80
2023/01/20 00:09:52;;;;;;;2.88;2.67;;;1.60;99.90;;;;;;5050535;28;20206;-82
2023/01/20 00:12:21;;;;;;;5.07;3.90;;;1.60;99.90;;;;;;5051962;28;20208;-82
2023/01/20 00:14:48;;;;;;;1.25;1.25;;;1.60;99.90;;;;;;5041335;28;20231;-81
2023/01/20 00:17:15;;;;;;;8.48;5.05;;;1.60;99.90;;;;;;5040068;28;20242;-81
2023/01/20 00:19:41;;;;;;;77.63;10.65;;;1.60;99.90;;;;;;5039488;28;20285;-81
2023/01/20 00:22:09;;;;;;;21.05;5.55;;;1.50;99.90;;;;;;5039268;28;20242;-80
2023/01/20 00:24:35;;;;;;;8.38;2.45;;;1.50;99.90;;;;;;5038711;28;20199;-79
2023/01/20 00:27:02;;;;;;;24.80;12.38;;;1.50;99.90;;;;;;5039103;28;20700;-81
2023/01/20 00:29:30;;;;;;;6.82;6.18;;;1.50;99.90;;;;;;5038994;28;20311;-78
2023/01/20 00:31:57;;;;;;;5.47;3.00;;;1.40;99.90;;;;;;5039290;28;20639;-80
2023/01/20 00:34:24;;;;;;;2.60;2.50;;;1.40;99.90;;;;;;5038981;28;20191;-81
2023/01/20 00:36:51;;;;;;;4.70;4.47;;;1.40;99.90;;;;;;5039226;28;20235;-80
2023/01/20 00:39:18;;;;;;;15.80;8.90;;;1.40;99.90;;;;;;5038726;28;20203;-80
2023/01/20 00:41:45;;;;;;;6.78;4.90;;;1.40;99.90;;;;;;5038607;28;20556;-79
2023/01/20 00:44:12;;;;;;;1.05;1.05;;;1.40;99.90;;;;;;5038549;28;20191;-81
2023/01/20 00:46:40;;;;;;;15.60;7.05;;;1.40;99.90;;;;;;5038585;28;20196;-81
2023/01/20 00:49:07;;;;;;;7.70;4.72;;;1.40;99.90;;;;;;5038835;28;20290;-80
2023/01/20 00:51:34;;;;;;;14.32;12.82;;;1.50;99.90;;;;;;5039197;28;20219;-81
2023/01/20 00:54:02;;;;;;;5.45;5.07;;;1.50;99.90;;;;;;5038518;28;20274;-80
2023/01/20 00:56:30;;;;;;;2.22;2.08;;;1.50;99.90;;;;;;5038325;28;20286;-81
2023/01/20 00:58:56;;;;;;;3.42;3.10;;;1.50;99.90;;;;;;5038513;28;20234;-80
2023/01/20 01:01:24;;;;;;;1.02;1.02;;;1.50;99.90;;;;;;5038704;28;20207;-80
2023/01/20 01:03:54;;;;;;;1.67;1.58;;;1.50;99.90;;;;;;5038954;28;20623;-80
2023/01/20 01:06:22;;;;;;;9.60;5.75;;;1.50;99.90;;;;;;5038513;28;20196;-81
2023/01/20 01:08:49;;;;;;;0.60;0.60;;;1.50;99.90;;;;;;5038871;28;20290;-81
2023/01/20 01:11:16;;;;;;;7.60;3.70;;;1.50;99.90;;;;;;5037666;28;20576;-82
2023/01/20 01:13:43;;;;;;;5.10;3.22;;;1.50;99.90;;;;;;5038632;28;20755;-81
2023/01/20 01:16:12;;;;;;;2.75;1.30;;;1.50;99.90;;;;;;5039017;28;20195;-81
2023/01/20 01:18:39;;;;;;;3.25;3.00;;;1.60;99.90;;;;;;5037175;28;20249;-82
2023/01/20 01:21:09;;;;;;;3.22;2.80;;;1.60;99.90;;;;;;5038249;28;20538;-81
2023/01/20 01:23:36;;;;;;;7.13;4.30;;;1.50;99.90;;;;;;5037922;28;20255;-80
2023/01/20 01:26:04;;;;;;;3.08;2.78;;;1.60;99.90;;;;;;5038407;28;20660;-80
2023/01/20 01:28:31;;;;;;;2.45;2.25;;;1.60;99.90;;;;;;5037684;28;20225;-82
2023/01/20 01:31:00;;;;;;;15.27;9.27;;;1.60;99.90;;;;;;5038346;28;20266;-79
2023/01/20 01:33:27;;;;;;;2.55;1.60;;;1.60;99.90;;;;;;5038235;28;20279;-82
2023/01/20 01:35:55;;;;;;;4.00;3.75;;;1.50;99.90;;;;;;5037657;28;20199;-81
2023/01/20 01:38:24;;;;;;;17.25;5.85;;;1.50;99.90;;;;;;5037440;28;20700;-81
2023/01/20 01:40:51;;;;;;;7.90;3.13;;;1.50;99.90;;;;;;5038627;28;20226;-81
2023/01/20 01:43:23;;;;;;;0.85;0.85;;;1.50;99.90;;;;;;5038244;28;20207;-81
2023/01/20 01:45:50;;;;;;;4.63;3.55;;;1.50;99.90;;;;;;5037987;28;20187;-81
2023/01/20 01:48:20;;;;;;;0.98;0.98;;;1.50;99.90;;;;;;5037949;28;20680;-81
2023/01/20 01:50:51;;;;;;;2.80;2.67;;;1.50;99.90;;;;;;5037439;28;20246;-81
2023/01/20 01:53:18;;;;;;;0.60;0.60;;;1.60;99.90;;;;;;5037783;28;20211;-81
2023/01/20 01:55:51;;;;;;;8.07;3.50;;;1.60;99.90;;;;;;5037923;28;20196;-80
2023/01/20 01:58:22;;;;;;;20.30;8.32;;;1.60;99.90;;;;;;5038078;28;20222;-81
2023/01/20 02:00:49;;;;;;;6.97;5.88;;;1.60;99.90;;;;;;5037846;28;20184;-81
2023/01/20 02:03:17;;;;;;;21.88;11.65;;;1.60;99.90;;;;;;5038014;28;20201;-82
2023/01/20 02:05:44;;;;;;;4.25;3.85;;;1.60;99.90;;;;;;5037267;28;20262;-81
2023/01/20 02:08:11;;;;;;;3.95;3.65;;;1.50;99.90;;;;;;5037992;28;20219;-81
2023/01/20 02:10:38;;;;;;;8.68;5.88;;;1.50;99.90;;;;;;5037432;28;20679;-81
2023/01/20 02:13:07;;;;;;;23.60;12.75;;;1.50;99.90;;;;;;5037569;28;20211;-81
2023/01/20 02:15:40;;;;;;;11.52;4.00;;;1.50;99.90;;;;;;5037770;28;20191;-81
2023/01/20 02:18:32;;;;;;;0.50;0.50;;;1.40;99.90;;;;;;5037837;28;20221;-81
2023/01/20 02:21:27;;;;;;;6.32;4.70;;;1.40;99.90;;;;;;5038615;28;20274;-82
2023/01/20 02:24:38;;;;;;;12.35;7.70;;;1.50;99.90;;;;;;5038967;28;20664;-82
2023/01/20 02:27:11;;;;;;;10.63;4.32;;;1.40;99.90;;;;;;5038590;28;20707;-81
2023/01/20 02:30:25;;;;;;;9.60;5.45;;;1.50;99.90;;;;;;5037777;28;20560;-81
2023/01/20 02:32:58;;;;;;;2.97;1.10;;;1.40;99.90;;;;;;4977839;28;20273;-81
2023/01/20 02:35:33;;;;;;;2.50;1.08;;;1.40;99.90;;;;;;5027103;28;20199;-82
2023/01/20 02:38:13;;;;;;;7.65;5.43;;;1.40;99.90;;;;;;5039664;28;20552;-82
2023/01/20 02:40:50;;;;;;;11.63;6.05;;;1.40;99.90;;;;;;5039989;28;20230;-84
2023/01/20 02:43:25;;;;;;;8.30;7.50;;;1.40;99.90;;;;;;5039790;28;20195;-81
2023/01/20 02:45:57;;;;;;;6.40;5.63;;;1.40;99.90;;;;;;5039117;28;20179;-78
2023/01/20 02:48:30;;;;;;;5.13;3.92;;;1.30;99.90;;;;;;5039799;28;20580;-81
2023/01/20 02:51:06;;;;;;;10.60;6.78;;;1.30;99.90;;;;;;5038842;28;20202;-81
2023/01/20 02:53:39;;;;;;;16.73;11.50;;;1.30;99.90;;;;;;5037498;28;20237;-81
2023/01/20 02:56:08;;;;;;;18.00;8.95;;;1.20;99.90;;;;;;5037277;28;20179;-81
2023/01/20 02:58:39;;;;;;;15.15;9.75;;;1.20;99.90;;;;;;5036271;28;20219;-81
2023/01/20 03:01:11;;;;;;;11.25;3.60;;;1.20;99.90;;;;;;5037104;28;20195;-81
2023/01/20 03:03:43;;;;;;;4.45;4.07;;;1.20;99.90;;;;;;5037289;28;20249;-80
2023/01/20 03:06:16;;;;;;;2.85;2.35;;;1.20;99.90;;;;;;5036782;28;20180;-80
2023/01/20 03:08:44;;;;;;;8.30;7.60;;;1.20;99.90;;;;;;5037132;28;20274;-81
2023/01/20 03:11:12;;;;;;;5.55;3.42;;;1.30;99.90;;;;;;5037842;28;20196;-81
2023/01/20 03:13:46;;;;;;;4.05;3.20;;;1.30;99.90;;;;;;5036155;28;20219;-80
2023/01/20 03:16:15;;;;;;;1.05;1.05;;;1.30;99.90;;;;;;5036287;28;20246;-81
2023/01/20 03:18:44;;;;;;;6.53;4.57;;;1.20;99.90;;;;;;5037268;28;20321;-81
2023/01/20 03:21:13;;;;;;;4.53;2.40;;;1.30;99.90;;;;;;5037246;28;20277;-82
2023/01/20 03:23:43;;;;;;;4.10;3.70;;;1.30;99.90;;;;;;5036401;28;20246;-82
2023/01/20 03:26:12;;;;;;;15.50;9.15;;;1.30;99.90;;;;;;5036633;28;20205;-81
2023/01/20 03:28:40;;;;;;;6.43;5.82;;;1.30;99.90;;;;;;5036493;28;20305;-80
2023/01/20 03:31:15;;;;;;;8.90;7.82;;;1.30;99.90;;;;;;5036671;28;20286;-80
2023/01/20 03:33:45;;;;;;;9.75;4.88;;;1.30;99.90;;;;;;5037243;28;20290;-79
2023/01/20 03:36:14;;;;;;;11.05;6.35;;;1.20;99.90;;;;;;5036485;28;20202;-81
2023/01/20 03:38:41;;;;;;;2.60;2.50;;;1.30;99.90;;;;;;5035863;28;20212;-80
2023/01/20 03:41:17;;;;;;;14.10;8.98;;;1.30;99.90;;;;;;5035938;28;20260;-80
2023/01/20 03:43:48;;;;;;;8.15;6.53;;;1.20;99.90;;;;;;5040364;28;20201;-81
2023/01/20 03:46:24;;;;;;;3.65;3.45;;;1.20;99.90;;;;;;5039944;28;20250;-81
2023/01/20 03:49:01;;;;;;;8.32;6.22;;;1.20;99.90;;;;;;5040845;28;20191;-81
2023/01/20 03:51:34;;;;;;;15.05;10.63;;;1.20;99.90;;;;;;5040263;28;20186;-79
2023/01/20 03:54:04;;;;;;;8.32;4.72;;;1.20;99.90;;;;;;5039737;28;20313;-80
2023/01/20 03:56:37;;;;;;;18.25;9.32;;;1.20;99.90;;;;;;5049289;28;20302;-80
2023/01/20 03:59:06;;;;;;;6.95;4.32;;;1.20;99.90;;;;;;5053951;28;20207;-80
2023/01/20 04:01:38;;;;;;;5.28;3.05;;;1.20;99.90;;;;;;5053248;28;20222;-78
2023/01/20 04:04:10;;;;;;;3.80;2.40;;;1.20;99.90;;;;;;5040363;28;20185;-81
2023/01/20 04:06:39;;;;;;;4.40;2.15;;;1.20;99.90;;;;;;5040292;28;20186;-80
2023/01/20 04:09:11;;;;;;;15.63;8.07;;;1.20;99.90;;;;;;5040372;28;20191;-82
2023/01/20 04:11:38;;;;;;;1.95;1.85;;;1.10;99.90;;;;;;5040085;28;20194;-83
2023/01/20 04:14:05;;;;;;;2.67;2.45;;;1.10;99.90;;;;;;5040105;28;20221;-82
2023/01/20 04:16:32;;;;;;;20.58;10.30;;;1.20;99.90;;;;;;5039528;28;20691;-82
2023/01/20 04:18:58;;;;;;;7.22;6.28;;;1.20;99.90;;;;;;5040164;28;20230;-81
2023/01/20 04:21:33;;;;;;;19.40;7.85;;;1.20;99.90;;;;;;5039942;28;20249;-82
2023/01/20 04:24:06;;;;;;;17.55;9.38;;;1.20;99.90;;;;;;5040637;28;20194;-81
2023/01/20 04:26:33;;;;;;;5.95;5.55;;;1.20;99.90;;;;;;5039337;28;20694;-82
2023/01/20 04:29:07;;;;;;;10.95;7.43;;;1.20;99.90;;;;;;5040451;28;20270;-81
2023/01/20 04:31:34;;;;;;;0.60;0.60;;;1.20;99.90;;;;;;5040507;28;20286;-82
2023/01/20 04:34:01;;;;;;;7.57;5.22;;;1.20;99.90;;;;;;5041204;28;20246;-82
2023/01/20 04:36:29;;;;;;;4.35;2.33;;;1.20;99.90;;;;;;5041941;28;20200;-82
2023/01/20 04:38:56;;;;;;;6.95;6.43;;;1.20;99.90;;;;;;5041235;28;20223;-81
2023/01/20 04:41:23;;;;;;;0.50;0.50;;;1.20;99.90;;;;;;5043560;28;20199;-82
2023/01/20 04:43:50;;;;;;;4.25;2.88;;;1.30;99.90;;;;;;5046024;28;20296;-82
2023/01/20 04:46:17;;;;;;;9.25;6.35;;;1.30;99.90;;;;;;5042818;28;20249;-82
2023/01/20 04:48:45;;;;;;;19.42;7.82;;;1.30;99.90;;;;;;5041944;28;20226;-83
2023/01/20 04:51:12;;;;;;;2.50;2.40;;;1.30;99.90;;;;;;5042513;28;20236;-83
2023/01/20 04:53:40;;;;;;;1.13;1.13;;;1.30;99.90;;;;;;5042656;28;20306;-81
2023/01/20 04:56:11;;;;;;;13.50;1.15;;;1.40;99.90;;;;;;5042254;28;20274;-83
2023/01/20 04:58:38;;;;;;;9.45;7.55;;;1.40;99.90;;;;;;5042204;28;20231;-83
2023/01/20 05:01:05;;;;;;;4.03;3.80;;;1.40;99.90;;;;;;5041737;28;20199;-82
2023/01/20 05:03:32;;;;;;;4.43;3.60;;;1.40;99.90;;;;;;5041358;28;20286;-82
2023/01/20 05:05:59;;;;;;;1.98;1.88;;;1.30;99.90;;;;;;5039848;28;20259;-82
2023/01/20 05:08:26;;;;;;;1.65;1.35;;;1.40;99.90;;;;;;5040416;28;20234;-82
2023/01/20 05:10:54;;;;;;;3.72;1.98;;;1.40;99.90;;;;;;5041035;28;20199;-81
2023/01/20 05:13:21;;;;;;;5.57;4.05;;;1.40;99.90;;;;;;5040100;28;20226;-83
2023/01/20 05:15:47;;;;;;;9.20;1.50;;;1.40;99.90;;;;;;5039753;28;20253;-82
2023/01/20 05:18:14;;;;;;;1.92;1.83;;;1.40;99.90;;;;;;5039968;28;20225;-82
2023/01/20 05:20:43;;;;;;;0.50;0.40;;;1.40;99.90;;;;;;5040044;28;20195;-82
2023/01/20 05:23:10;;;;;;;7.88;3.95;;;1.40;99.90;;;;;;5038782;28;20294;-81
2023/01/20 05:25:37;;;;;;;0.60;0.60;;;1.40;99.90;;;;;;5039314;28;20191;-82
2023/01/20 05:28:06;;;;;;;2.92;2.83;;;1.40;99.90;;;;;;5041792;28;20215;-83
2023/01/20 05:30:33;;;;;;;0.68;0.68;;;1.40;99.90;;;;;;5041015;28;20246;-80
2023/01/20 05:33:00;;;;;;;0.50;0.40;;;1.40;99.90;;;;;;5042172;28;20800;-82
2023/01/20 05:35:26;;;;;;;1.50;1.40;;;1.40;99.90;;;;;;5042585;28;20621;-82
2023/01/20 05:37:54;;;;;;;1.77;1.67;;;1.40;99.90;;;;;;5043493;28;20246;-82
2023/01/20 05:40:21;;;;;;;0.50;0.50;;;1.40;99.90;;;;;;5042748;28;20271;-81
2023/01/20 05:42:48;;;;;;;2.53;2.42;;;1.40;99.90;;;;;;5042615;28;20286;-81
2023/01/20 05:45:17;;;;;;;2.58;2.25;;;1.40;99.90;;;;;;5042032;28;20254;-80
2023/01/20 05:47:44;;;;;;;1.45;0.60;;;1.40;99.90;;;;;;5043014;28;20222;-80
2023/01/20 05:50:11;;;;;;;10.63;4.40;;;1.40;99.90;;;;;;5044467;28;20203;-80
2023/01/20 05:52:38;;;;;;;1.70;1.60;;;1.30;99.90;;;;;;5038056;28;20219;-81
2023/01/20 05:55:05;;;;;;;3.25;1.75;;;1.30;99.90;;;;;;5039414;28;20242;-80
2023/01/20 05:57:32;;;;;;;3.08;2.88;;;1.30;99.90;;;;;;5038295;28;20715;-82
2023/01/20 05:59:59;;;;;;;2.45;2.35;;;1.30;99.90;;;;;;5038648;28;20195;-80
2023/01/20 06:02:30;;;;;;;2.45;1.75;;;1.30;99.90;;;;;;5037817;28;20286;-83
2023/01/20 06:05:00;;;;;;;1.35;1.25;;;1.40;99.90;;;;;;5033157;28;20243;-84
2023/01/20 06:07:27;;;;;;;1.23;1.13;;;1.40;99.90;;;;;;5029186;28;20215;-80
2023/01/20 06:09:54;;;;;;;1.25;1.20;;;1.40;99.90;;;;;;5022765;28;20222;-81
2023/01/20 06:12:21;;;;;;;5.45;4.05;;;1.40;99.90;;;;;;5036822;28;20282;-82
2023/01/20 06:14:48;;;;;;;2.88;2.15;;;1.50;99.90;;;;;;5035699;28;20294;-81
2023/01/20 06:17:14;;;;;;;8.23;7.43;;;1.50;99.90;;;;;;5035973;28;20242;-81
2023/01/20 06:19:43;;;;;;;1.65;1.25;;;1.50;99.90;;;;;;5036995;28;20275;-83
2023/01/20 06:22:13;;;;;;;4.00;3.30;;;1.50;99.90;;;;;;5048151;28;20191;-82
2023/01/20 06:24:40;;;;;;;6.40;5.78;;;1.50;99.90;;;;;;5040328;28;20187;-81
2023/01/20 06:27:07;;;;;;;3.53;2.55;;;1.50;99.90;;;;;;5037481;28;20572;-83
2023/01/20 06:29:34;;;;;;;12.27;5.47;;;1.40;99.90;;;;;;5036778;28;20226;-82
2023/01/20 06:32:01;;;;;;;16.75;8.80;;;1.40;99.90;;;;;;5037341;28;20241;-80
2023/01/20 06:34:28;;;;;;;2.90;2.67;;;1.40;99.90;;;;;;5036222;28;20286;-83
2023/01/20 06:36:57;;;;;;;15.93;7.60;;;1.40;99.90;;;;;;5036950;28;20246;-82
2023/01/20 06:39:23;;;;;;;17.27;6.30;;;1.40;99.90;;;;;;5037126;28;20195;-81
2023/01/20 06:41:50;;;;;;;6.43;5.72;;;1.30;99.90;;;;;;5037364;28;20880;-82
2023/01/20 06:44:17;;;;;;;2.97;2.67;;;1.30;99.90;;;;;;5038014;28;20191;-80
2023/01/20 06:46:44;;;;;;;4.95;2.17;;;1.20;99.90;;;;;;5038212;28;20708;-81
2023/01/20 06:49:11;;;;;;;2.35;2.25;;;1.30;99.90;;;;;;5038732;28;20199;-79
2023/01/20 06:51:38;;;;;;;2.65;2.30;;;1.30;99.90;;;;;;5043399;28;20274;-82
2023/01/20 06:54:06;;;;;;;9.45;8.20;;;1.30;99.90;;;;;;5037508;28;20663;-83
2023/01/20 06:56:33;;;;;;;6.15;2.25;;;1.30;99.90;;;;;;5037781;28;20322;-83
2023/01/20 06:59:00;;;;;;;8.20;5.72;;;1.30;99.90;;;;;;5037193;28;20266;-83
2023/01/20 07:01:29;;;;;;;2.88;1.40;;;1.30;99.90;;;;;;5038154;28;20282;-80
2023/01/20 07:03:56;;;;;;;13.55;4.47;;;1.20;99.90;;;;;;5037012;28;20222;-82
2023/01/20 07:06:28;;;;;;;12.60;6.60;;;1.20;99.90;;;;;;5036660;28;20274;-81
2023/01/20 07:08:55;;;;;;;14.52;5.57;;;1.20;99.90;;;;;;5037727;28;20281;-82
2023/01/20 07:11:24;;;;;;;2.63;2.40;;;1.30;99.90;;;;;;5035860;28;20201;-82
2023/01/20 07:13:51;;;;;;;6.18;3.08;;;1.30;99.90;;;;;;5035693;28;20282;-82
2023/01/20 07:16:18;;;;;;;1.00;1.00;;;1.30;99.90;;;;;;5035543;28;20222;-81
2023/01/20 07:18:49;;;;;;;9.70;4.40;;;1.20;99.90;;;;;;5037134;28;20229;-82
2023/01/20 07:21:17;;;;;;;0.85;0.85;;;1.20;99.90;;;;;;5036448;28;20605;-82
2023/01/20 07:23:44;;;;;;;5.90;3.80;;;1.20;99.90;;;;;;5038793;28;20191;-79
2023/01/20 07:26:13;;;;;;;9.70;4.20;;;1.30;99.90;;;;;;5037054;28;20195;-80
2023/01/20 07:28:42;;;;;;;1.67;1.30;;;1.20;99.90;;;;;;5035633;28;20207;-79
2023/01/20 07:31:10;;;;;;;2.78;2.05;;;1.20;99.90;;;;;;5035558;28;20290;-81
2023/01/20 07:33:37;;;;;;;2.67;2.42;;;1.20;99.90;;;;;;5035258;28;20283;-79
2023/01/20 07:36:06;;;;;;;4.18;3.78;;;1.20;99.90;;;;;;5034638;28;20294;-81
2023/01/20 07:38:33;;;;;;;9.25;5.28;;;1.30;99.90;;;;;;5035859;28;20211;-80
2023/01/20 07:41:01;;;;;;;3.47;3.20;;;1.30;99.90;;;;;;5035867;28;20196;-81
2023/01/20 07:43:28;;;;;;;4.88;4.45;;;1.30;99.90;;;;;;5035246;28;20275;-80
2023/01/20 07:45:57;;;;;;;10.30;4.10;;;1.20;99.90;;;;;;5035394;28;20282;-78
2023/01/20 07:48:24;;;;;;;5.18;4.25;;;1.30;99.90;;;;;;5035701;28;20575;-80
2023/01/20 07:51:00;;;;;;;1.13;1.13;;;1.30;99.90;;;;;;5035483;28;20242;-79
2023/01/20 07:53:27;;;;;;;0.40;0.40;;;1.30;99.90;;;;;;5036373;28;20214;-81
2023/01/20 07:55:54;;;;;;;5.93;4.78;;;1.30;99.90;;;;;;5034858;28;20556;-81
2023/01/20 07:58:21;;;;;;;16.73;6.30;;;1.40;99.90;;;;;;5035725;28;20306;-80
2023/01/20 08:00:48;;;;;;;5.57;2.95;;;1.40;99.90;;;;;;5046588;28;20262;-80
2023/01/20 08:03:16;;;;;;;2.88;2.67;;;1.40;99.90;;;;;;5049408;28;20255;-77
2023/01/20 08:05:43;;;;;;;7.15;4.78;;;1.40;99.90;;;;;;5051599;28;20195;-80
2023/01/20 08:08:09;;;;;;;4.45;4.03;;;1.40;99.90;;;;;;5050720;28;20231;-80
2023/01/20 08:10:36;;;;;;;10.43;9.43;;;1.50;99.90;;;;;;5049805;28;20195;-80
2023/01/20 08:13:03;;;;;;;10.45;5.05;;;1.40;99.90;;;;;;5050949;28;20401;-80
2023/01/20 08:15:30;;;;;;;5.18;3.13;;;1.40;99.90;;;;;;5053146;28;20279;-80
2023/01/20 08:17:58;;;;;;;9.23;7.47;;;1.50;99.90;;;;;;5051603;28;20211;-80
2023/01/20 08:20:26;;;;;;;6.70;6.10;;;1.50;99.90;;;;;;5052689;28;20202;-80
2023/01/20 08:22:53;;;;;;;5.40;5.07;;;1.50;99.90;;;;;;5043555;28;20202;-80
2023/01/20 08:25:20;;;;;;;7.55;5.53;;;1.40;99.90;;;;;;5042293;28;20283;-80
2023/01/20 08:27:48;;;;;;;14.88;5.32;;;1.50;99.90;;;;;;5042764;28;20254;-80
2023/01/20 08:30:16;;;;;;;9.30;5.47;;;1.50;99.90;;;;;;5041775;28;20199;-80
2023/01/20 08:32:42;;;;;;;15.20;9.02;;;1.50;99.90;;;;;;5038558;28;20206;-80
2023/01/20 08:35:11;;;;;;;8.57;4.85;;;1.40;99.90;;;;;;5038646;28;20314;-79
2023/01/20 08:37:40;;;;;;;6.22;2.70;;;1.40;99.90;;;;;;5037806;28;20226;-79
2023/01/20 08:40:08;;;;;;;13.85;8.55;;;1.40;99.90;;;;;;5038403;28;20254;-79
2023/01/20 08:42:35;;;;;;;4.20;3.85;;;1.40;99.90;;;;;;5038751;28;20203;-78
2023/01/20 08:45:03;;;;;;;3.80;3.50;;;1.50;99.90;;;;;;5037364;28;20711;-79
2023/01/20 08:47:30;;;;;;;7.22;5.05;;;1.50;99.90;;;;;;5037907;28;20330;-79
2023/01/20 08:49:57;;;;;;;2.33;2.13;;;1.50;99.90;;;;;;5038251;28;20219;-80
2023/01/20 08:52:24;;;;;;;2.20;2.00;;;1.50;99.90;;;;;;5038521;28;20267;-79
2023/01/20 08:54:53;;;;;;;15.05;8.65;;;1.60;99.90;;;;;;5037177;28;20213;-79
2023/01/20 08:57:20;;;;;;;2.17;2.08;;;1.50;99.90;;;;;;5021259;28;20226;-79
2023/01/20 08:59:47;;;;;;;12.30;5.05;;;1.50;99.90;;;;;;5049941;28;20214;-78
2023/01/20 09:02:14;;;;;;;8.82;4.20;;;1.60;99.90;;;;;;5054152;28;20244;-80
2023/01/20 09:04:41;;;;;;;9.18;4.90;;;1.60;99.90;;;;;;5041942;28;20195;-78
2023/01/20 09:07:11;;;;;;;4.53;2.22;;;1.60;99.90;;;;;;5039784;28;20253;-79
2023/01/20 09:09:38;;;;;;;7.63;6.93;;;1.60;99.90;;;;;;5039336;28;20676;-83
2023/01/20 09:12:07;;;;;;;8.10;4.45;;;1.70;99.90;;;;;;5039719;28;20234;-80
2023/01/20 09:14:34;;;;;;;3.65;3.55;;;1.80;99.90;;;;;;5039801;28;20215;-80
2023/01/20 09:17:01;;;;;;;5.22;4.60;;;1.80;99.90;;;;;;5039306;28;20223;-79
2023/01/20 09:19:28;;;;;;;13.70;7.00;;;1.80;99.90;;;;;;5038457;28;20314;-82
2023/01/20 09:21:56;;;;;;;8.82;5.60;;;1.80;99.90;;;;;;5038562;28;20605;-80
2023/01/20 09:24:23;;;;;;;12.13;3.72;;;1.80;99.90;;;;;;5038011;28;20222;-80
2023/01/20 09:26:51;;;;;;;6.78;4.90;;;1.80;99.90;;;;;;5037395;28;20768;-80
2023/01/20 09:29:21;;;;;;;5.57;3.33;;;1.80;99.90;;;;;;5019616;28;20270;-81
2023/01/20 09:31:50;;;;;;;12.40;7.10;;;1.80;99.90;;;;;;5018803;28;20196;-82
2023/01/20 09:34:22;;;;;;;7.00;6.28;;;1.80;99.90;;;;;;5018543;28;20223;-81
2023/01/20 09:36:51;;;;;;;3.88;3.58;;;1.70;99.90;;;;;;5018424;28;20697;-82
2023/01/20 09:45:21;;;;;;;3.05;2.85;;;1.70;99.90;;;;;;5006988;28;20622;-82
2023/01/20 09:47:49;;;;;;;1.15;0.77;;;1.80;99.90;;;;;;5017670;28;20446;-81
2023/01/20 09:53:39;;;;;;;0.93;0.93;;;1.90;99.90;;;;;;5021833;28;20263;-83
2023/01/20 09:56:15;;;;;;;19.23;8.65;;;1.90;99.90;;;;;;5027051;28;20268;-80
2023/01/20 09:58:48;;;;;;;5.45;3.42;;;2.00;99.90;;;;;;5026871;28;20223;-84
2023/01/20 10:01:29;;;;;;;9.60;6.43;;;2.10;99.90;;;;;;5029275;28;20202;-80
2023/01/20 10:04:05;;;;;;;8.85;7.50;;;2.00;99.90;;;;;;5034392;28;20175;-81
2023/01/20 10:06:34;;;;;;;0.70;0.70;;;2.10;99.90;;;;;;5032160;28;20176;-81
2023/01/20 10:09:05;;;;;;;4.57;3.67;;;2.20;99.90;;;;;;5019349;28;20198;-84
2023/01/20 10:11:38;;;;;;;11.85;6.65;;;2.30;99.90;;;;;;5030670;28;20218;-83
2023/01/20 10:14:15;;;;;;;13.02;4.65;;;2.30;99.90;;;;;;5020430;28;20215;-81
2023/01/20 10:16:50;;;;;;;7.15;4.57;;;2.50;99.90;;;;;;5019349;28;20207;-80
2023/01/20 10:19:26;;;;;;;5.13;2.15;;;2.50;99.90;;;;;;5019545;28;20271;-83
2023/01/20 10:22:03;;;;;;;3.35;3.13;;;2.60;99.90;;;;;;5020945;28;20192;-83
2023/01/20 10:24:35;;;;;;;3.80;3.38;;;2.70;99.90;;;;;;5020677;28;20235;-84
2023/01/20 10:27:03;;;;;;;0.50;0.40;;;2.80;99.90;;;;;;5021727;28;20212;-83
2023/01/20 10:29:35;;;;;;;2.42;1.33;;;2.90;99.90;;;;;;5021309;28;20649;-83
2023/01/20 10:32:09;;;;;;;7.50;4.45;;;3.00;99.90;;;;;;5019303;28;20196;-83
2023/01/20 10:34:41;;;;;;;10.77;5.80;;;3.00;99.90;;;;;;5019945;28;20191;-84
2023/01/20 10:37:10;;;;;;;4.43;3.47;;;3.00;99.90;;;;;;5020674;28;20223;-85
2023/01/20 10:39:45;;;;;;;0.93;0.50;;;3.00;99.90;;;;;;5021517;28;20195;-82
2023/01/20 10:42:14;;;;;;;1.65;1.55;;;3.00;99.90;;;;;;5021577;28;20616;-84
2023/01/20 10:44:42;;;;;;;8.02;4.82;;;3.00;99.90;;;;;;5022173;28;20231;-83
2023/01/20 10:47:17;;;;;;;0.80;0.80;;;3.00;99.90;;;;;;5021820;28;20208;-83
2023/01/20 10:50:16;;;;;;;7.90;5.25;;;3.00;99.90;;;;;;5022143;28;20198;-83
2023/01/20 10:53:15;;;;;;;8.98;5.22;;;2.90;99.90;;;;;;5021823;28;20246;-83
2023/01/20 10:55:56;;;;;;;7.68;6.25;;;2.80;99.90;;;;;;5022995;28;20246;-80
2023/01/20 10:58:26;;;;;;;5.13;1.55;;;2.80;99.90;;;;;;5022800;28;20310;-84
2023/01/20 11:00:53;;;;;;;1.17;1.17;;;2.80;99.90;;;;;;5021405;28;20208;-84
2023/01/20 11:03:23;;;;;;;5.35;2.97;;;2.90;99.90;;;;;;5021519;28;20278;-84
2023/01/20 11:05:51;;;;;;;4.55;4.22;;;3.00;99.90;;;;;;5020635;28;20215;-84
2023/01/20 11:08:21;;;;;;;1.08;1.00;;;3.10;99.90;;;;;;5022776;28;20283;-84
2023/01/20 11:10:51;;;;;;;5.20;3.85;;;3.10;99.90;;;;;;5023696;28;20202;-81
2023/01/20 11:13:18;;;;;;;8.07;3.42;;;3.10;99.90;;;;;;5034946;28;20227;-83
2023/01/20 11:15:48;;;;;;;10.48;6.13;;;3.00;99.90;;;;;;5034529;28;20280;-81
2023/01/20 11:18:29;;;;;;;4.63;3.90;;;3.00;99.90;;;;;;5022215;28;20242;-84
2023/01/20 11:20:59;;;;;;;3.80;2.95;;;2.90;99.90;;;;;;5020509;28;20200;-84
2023/01/20 11:23:36;;;;;;;0.60;0.60;;;2.90;99.90;;;;;;5021219;28;20200;-83
2023/01/20 11:26:08;;;;;;;3.63;2.55;;;2.90;99.90;;;;;;5021429;28;20201;-84
2023/01/20 11:28:47;;;;;;;2.88;2.78;;;3.00;99.90;;;;;;5021444;28;20219;-84
2023/01/20 11:31:14;;;;;;;1.17;1.17;;;3.00;99.90;;;;;;5022203;28;20634;-83
2023/01/20 11:33:55;;;;;;;6.38;3.72;;;2.90;99.90;;;;;;5021087;28;20267;-84
2023/01/20 11:36:25;;;;;;;0.50;0.40;;;2.90;99.90;;;;;;5021790;28;20221;-84
2023/01/20 11:38:54;;;;;;;3.17;2.63;;;2.90;99.90;;;;;;5022716;28;20216;-84
2023/01/20 11:41:22;;;;;;;5.40;4.15;;;3.00;99.90;;;;;;5023185;28;20291;-86
2023/01/20 11:43:54;;;;;;;0.85;0.85;;;3.00;99.90;;;;;;5022292;28;20276;-85
2023/01/20 11:46:24;;;;;;;2.25;2.15;;;3.00;99.90;;;;;;5022007;28;20195;-85
2023/01/20 11:49:12;;;;;;;0.70;0.70;;;3.10;99.90;;;;;;5022026;28;20219;-85
2023/01/20 11:51:47;;;;;;;2.35;2.25;;;3.10;99.90;;;;;;5021708;28;20215;-85
2023/01/20 11:54:16;;;;;;;2.58;2.30;;;3.20;99.90;;;;;;5022641;28;20184;-85
2023/01/20 11:56:45;;;;;;;2.05;1.95;;;3.20;99.90;;;;;;5022241;28;20216;-85
2023/01/20 11:59:21;;;;;;;1.40;0.70;;;3.20;99.90;;;;;;5020990;28;20286;-85
2023/01/20 12:01:57;;;;;;;14.07;5.90;;;3.20;99.90;;;;;;5021754;28;20172;-84
2023/01/20 12:04:43;;;;;;;1.10;1.10;;;3.10;99.90;;;;;;5023662;28;20176;-84
2023/01/20 12:07:13;;;;;;;1.42;1.42;;;3.00;99.90;;;;;;5024817;28;20278;-84
2023/01/20 12:09:43;;;;;;;2.20;2.00;;;3.00;99.90;;;;;;5025773;28;20532;-84
2023/01/20 12:12:17;;;;;;;0.50;0.40;;;3.00;99.90;;;;;;5026104;28;20184;-84
2023/01/20 12:14:49;;;;;;;1.50;1.25;;;3.00;99.90;;;;;;5024678;28;20223;-84
2023/01/20 12:17:22;;;;;;;13.20;3.72;;;3.00;99.90;;;;;;5024970;28;20216;-84
2023/01/20 12:20:15;;;;;;;1.70;0.93;;;2.80;99.90;;;;;;5024845;28;20553;-84
2023/01/20 12:22:51;;;;;;;1.13;1.08;;;2.80;99.90;;;;;;5024973;28;20180;-85
2023/01/20 12:25:22;;;;;;;0.70;0.70;;;2.70;99.90;;;;;;5023909;28;20311;-85
2023/01/20 12:27:53;;;;;;;1.25;1.15;;;2.80;99.90;;;;;;5024189;28;20274;-85
2023/01/20 12:30:39;;;;;;;0.98;0.98;;;2.80;99.90;;;;;;5027730;28;20204;-85
2023/01/20 12:33:17;;;;;;;0.50;0.40;;;2.80;99.90;;;;;;5031518;28;20203;-83
2023/01/20 12:36:12;;;;;;;1.60;0.93;;;2.80;99.90;;;;;;5031406;28;20195;-82
2023/01/20 12:38:52;;;;;;;1.67;1.58;;;2.80;99.90;;;;;;5032116;28;20219;-83
2023/01/20 12:41:34;;;;;;;1.40;1.30;;;2.80;99.90;;;;;;5032043;28;20183;-83
2023/01/20 12:44:13;;;;;;;10.23;3.17;;;2.80;99.90;;;;;;5030293;28;20172;-83
2023/01/20 12:46:46;;;;;;;1.98;1.40;;;2.80;99.90;;;;;;5028831;28;20719;-85
2023/01/20 12:49:38;;;;;;;1.45;1.00;;;2.80;99.90;;;;;;5028235;28;20231;-83
2023/01/20 12:52:21;;;;;;;4.82;1.67;;;2.80;99.90;;;;;;5024672;28;20239;-85
2023/01/20 12:55:01;;;;;;;3.13;1.58;;;2.80;99.90;;;;;;5028004;28;20188;-85
2023/01/20 12:57:49;;;;;;;19.58;2.72;;;2.90;99.90;;;;;;5026820;28;20224;-84
2023/01/20 13:00:37;;;;;;;1.45;1.35;;;2.90;99.90;;;;;;5029286;28;20210;-85
2023/01/20 13:03:43;;;;;;;2.35;1.58;;;2.80;99.90;;;;;;5026743;28;20630;-83
2023/01/20 13:06:42;;;;;;;1.80;1.70;;;2.90;99.90;;;;;;5027064;28;20212;-84
2023/01/20 13:09:35;;;;;;;0.50;0.40;;;2.80;99.90;;;;;;4993059;28;20230;-84
2023/01/20 13:12:14;;;;;;;2.85;2.58;;;2.90;99.90;;;;;;5026116;28;20176;-84
2023/01/20 13:14:44;;;;;;;1.92;1.73;;;2.90;99.90;;;;;;5025590;28;20470;-83
2023/01/20 13:17:17;;;;;;;3.13;2.08;;;3.00;99.90;;;;;;5027935;28;20228;-83
2023/01/20 13:19:47;;;;;;;0.50;0.40;;;2.90;99.90;;;;;;5026394;28;20184;-84
2023/01/20 13:22:17;;;;;;;0.50;0.40;;;2.90;99.90;;;;;;5024215;28;20205;-84